sensor_id;sensor_type;location;lat;lon;timestamp;temperature;humidity
3190;DHT22;1606;51.946;10.558;2024-02-26T00:00:13;5.50;99.90
3190;DHT22;1606;51.946;10.558;2024-02-26T00:02:41;5.50;99.90
3190;DHT22;1606;51.946;10.558;2024-02-26T00:05:09;5.70;99.90
3190;DHT22;1606;51.946;10.558;2024-02-26T00:07:37;5.70;99.90
3190;DHT22;1606;51.946;10.558;2024-02-26T00:10:06;5.70;99.90
3190;DHT22;1606;51.946;10.558;2024-02-26T00:12:35;5.60;99.90
3190;DHT22;1606;51.946;10.558;2024-02-26T00:15:03;5.60;99.90
3190;DHT22;1606;51.946;10.558;2024-02-26T00:17:32;5.60;99.90
3190;DHT22;1606;51.946;10.558;2024-02-26T00:20:01;5.50;99.90
3190;DHT22;1606;51.946;10.558;2024-02-26T00:22:29;5.50;99.90
3190;DHT22;1606;51.946;10.558;2024-02-26T00:24:57;5.40;99.90
3190;DHT22;1606;51.946;10.558;2024-02-26T00:27:25;5.40;99.90
3190;DHT22;1606;51.946;10.558;2024-02-26T00:29:53;5.50;99.90
3190;DHT22;1606;51.946;10.558;2024-02-26T00:32:21;5.50;99.90
3190;DHT22;1606;51.946;10.558;2024-02-26T00:34:50;5.50;99.90
3190;DHT22;1606;51.946;10.558;2024-02-26T00:37:18;5.50;99.90
3190;DHT22;1606;51.946;10.558;2024-02-26T00:39:46;5.70;99.90
3190;DHT22;1606;51.946;10.558;2024-02-26T00:42:14;5.90;99.90
3190;DHT22;1606;51.946;10.558;2024-02-26T00:44:42;6.00;99.90
3190;DHT22;1606;51.946;10.558;2024-02-26T00:47:10;5.90;99.90
3190;DHT22;1606;51.946;10.558;2024-02-26T00:49:37;5.90;99.90
3190;DHT22;1606;51.946;10.558;2024-02-26T00:52:07;6.00;99.90
3190;DHT22;1606;51.946;10.558;2024-02-26T00:54:34;6.00;99.90
3190;DHT22;1606;51.946;10.558;2024-02-26T00:57:02;5.80;99.90
3190;DHT22;1606;51.946;10.558;2024-02-26T00:59:30;5.90;99.90
3190;DHT22;1606;51.946;10.558;2024-02-26T01:01:58;5.90;99.90
3190;DHT22;1606;51.946;10.558;2024-02-26T01:04:28;5.80;99.90
3190;DHT22;1606;51.946;10.558;2024-02-26T01:06:56;5.70;99.90
3190;DHT22;1606;51.946;10.558;2024-02-26T01:09:25;5.60;99.90
3190;DHT22;1606;51.946;10.558;2024-02-26T01:11:53;5.50;99.90
3190;DHT22;1606;51.946;10.558;2024-02-26T01:14:21;5.50;99.90
3190;DHT22;1606;51.946;10.558;2024-02-26T01:16:50;5.50;99.90
3190;DHT22;1606;51.946;10.558;2024-02-26T01:19:17;5.50;99.90
3190;DHT22;1606;51.946;10.558;2024-02-26T01:21:45;5.60;99.90
3190;DHT22;1606;51.946;10.558;2024-02-26T01:24:13;5.50;99.90
3190;DHT22;1606;51.946;10.558;2024-02-26T01:26:43;5.50;99.90
3190;DHT22;1606;51.946;10.558;2024-02-26T01:29:11;5.50;99.90
3190;DHT22;1606;51.946;10.558;2024-02-26T01:31:39;5.50;99.90
3190;DHT22;1606;51.946;10.558;2024-02-26T01:34:07;5.50;99.90
3190;DHT22;1606;51.946;10.558;2024-02-26T01:36:35;5.50;99.90
3190;DHT22;1606;51.946;10.558;2024-02-26T01:39:03;5.50;99.90
3190;DHT22;1606;51.946;10.558;2024-02-26T01:41:31;5.50;99.90
3190;DHT22;1606;51.946;10.558;2024-02-26T01:44:00;5.50;99.90
3190;DHT22;1606;51.946;10.558;2024-02-26T01:46:29;5.50;99.90
3190;DHT22;1606;51.946;10.558;2024-02-26T01:48:57;5.30;99.90
3190;DHT22;1606;51.946;10.558;2024-02-26T01:51:26;5.30;99.90
3190;DHT22;1606;51.946;10.558;2024-02-26T01:53:54;5.30;99.90
3190;DHT22;1606;51.946;10.558;2024-02-26T01:56:22;5.30;99.90
3190;DHT22;1606;51.946;10.558;2024-02-26T01:58:54;5.40;99.90
3190;DHT22;1606;51.946;10.558;2024-02-26T02:01:25;5.30;99.90
3190;DHT22;1606;51.946;10.558;2024-02-26T02:03:56;5.20;99.90
3190;DHT22;1606;51.946;10.558;2024-02-26T02:06:26;5.30;99.90
3190;DHT22;1606;51.946;10.558;2024-02-26T02:08:54;5.20;99.90
3190;DHT22;1606;51.946;10.558;2024-02-26T02:11:22;4.90;99.90
3190;DHT22;1606;51.946;10.558;2024-02-26T02:13:50;5.00;99.90
3190;DHT22;1606;51.946;10.558;2024-02-26T02:16:18;5.00;99.90
3190;DHT22;1606;51.946;10.558;2024-02-26T02:18:47;5.00;99.90
3190;DHT22;1606;51.946;10.558;2024-02-26T02:21:16;5.10;99.90
3190;DHT22;1606;51.946;10.558;2024-02-26T02:23:44;5.20;99.90
3190;DHT22;1606;51.946;10.558;2024-02-26T02:26:14;5.10;99.90
3190;DHT22;1606;51.946;10.558;2024-02-26T02:28:42;5.20;99.90
3190;DHT22;1606;51.946;10.558;2024-02-26T02:31:10;5.20;99.90
3190;DHT22;1606;51.946;10.558;2024-02-26T02:33:38;5.20;99.90
3190;DHT22;1606;51.946;10.558;2024-02-26T02:36:06;5.30;99.90
3190;DHT22;1606;51.946;10.558;2024-02-26T02:38:38;5.30;99.90
3190;DHT22;1606;51.946;10.558;2024-02-26T02:41:06;5.10;99.90
3190;DHT22;1606;51.946;10.558;2024-02-26T02:43:33;5.10;99.90
3190;DHT22;1606;51.946;10.558;2024-02-26T02:46:01;5.10;99.90
3190;DHT22;1606;51.946;10.558;2024-02-26T02:48:29;5.00;99.90
3190;DHT22;1606;51.946;10.558;2024-02-26T02:50:57;5.10;99.90
3190;DHT22;1606;51.946;10.558;2024-02-26T02:53:25;5.10;99.90
3190;DHT22;1606;51.946;10.558;2024-02-26T02:55:54;5.10;99.90
3190;DHT22;1606;51.946;10.558;2024-02-26T02:58:22;5.20;99.90
3190;DHT22;1606;51.946;10.558;2024-02-26T03:00:50;5.30;99.90
3190;DHT22;1606;51.946;10.558;2024-02-26T03:03:17;5.30;99.90
3190;DHT22;1606;51.946;10.558;2024-02-26T03:05:45;5.30;99.90
3190;DHT22;1606;51.946;10.558;2024-02-26T03:08:14;5.10;99.90
3190;DHT22;1606;51.946;10.558;2024-02-26T03:10:42;5.20;99.90
3190;DHT22;1606;51.946;10.558;2024-02-26T03:13:11;5.30;99.90
3190;DHT22;1606;51.946;10.558;2024-02-26T03:15:39;5.40;99.90
3190;DHT22;1606;51.946;10.558;2024-02-26T03:18:07;5.50;99.90
3190;DHT22;1606;51.946;10.558;2024-02-26T03:20:35;5.50;99.90
3190;DHT22;1606;51.946;10.558;2024-02-26T03:23:03;5.40;99.90
3190;DHT22;1606;51.946;10.558;2024-02-26T03:25:31;5.10;99.90
3190;DHT22;1606;51.946;10.558;2024-02-26T03:27:59;5.00;99.90
3190;DHT22;1606;51.946;10.558;2024-02-26T03:30:29;5.10;99.90
3190;DHT22;1606;51.946;10.558;2024-02-26T03:32:56;5.20;99.90
3190;DHT22;1606;51.946;10.558;2024-02-26T03:35:24;5.20;99.90
3190;DHT22;1606;51.946;10.558;2024-02-26T03:37:52;5.10;99.90
3190;DHT22;1606;51.946;10.558;2024-02-26T03:40:20;5.20;99.90
3190;DHT22;1606;51.946;10.558;2024-02-26T03:42:48;5.20;99.90
3190;DHT22;1606;51.946;10.558;2024-02-26T03:45:15;5.20;99.90
3190;DHT22;1606;51.946;10.558;2024-02-26T03:47:44;5.20;99.90
3190;DHT22;1606;51.946;10.558;2024-02-26T03:50:12;5.10;99.90
3190;DHT22;1606;51.946;10.558;2024-02-26T03:52:40;5.10;99.90
3190;DHT22;1606;51.946;10.558;2024-02-26T03:55:08;5.20;99.90
3190;DHT22;1606;51.946;10.558;2024-02-26T03:57:36;5.20;99.90
3190;DHT22;1606;51.946;10.558;2024-02-26T04:00:05;5.20;99.90
3190;DHT22;1606;51.946;10.558;2024-02-26T04:02:33;5.30;99.90
3190;DHT22;1606;51.946;10.558;2024-02-26T04:05:03;5.40;99.90
3190;DHT22;1606;51.946;10.558;2024-02-26T04:07:30;5.30;99.90
3190;DHT22;1606;51.946;10.558;2024-02-26T04:09:58;5.20;99.90
3190;DHT22;1606;51.946;10.558;2024-02-26T04:12:30;5.00;99.90
3190;DHT22;1606;51.946;10.558;2024-02-26T04:14:58;5.00;99.90
3190;DHT22;1606;51.946;10.558;2024-02-26T04:17:26;5.00;99.90
3190;DHT22;1606;51.946;10.558;2024-02-26T04:19:54;5.00;99.90
3190;DHT22;1606;51.946;10.558;2024-02-26T04:22:23;4.90;99.90
3190;DHT22;1606;51.946;10.558;2024-02-26T04:24:51;5.00;99.90
3190;DHT22;1606;51.946;10.558;2024-02-26T04:27:19;5.00;99.90
3190;DHT22;1606;51.946;10.558;2024-02-26T04:29:47;5.00;99.90
3190;DHT22;1606;51.946;10.558;2024-02-26T04:32:15;5.10;99.90
3190;DHT22;1606;51.946;10.558;2024-02-26T04:34:43;5.10;99.90
3190;DHT22;1606;51.946;10.558;2024-02-26T04:37:10;5.00;99.90
3190;DHT22;1606;51.946;10.558;2024-02-26T04:39:40;5.00;99.90
3190;DHT22;1606;51.946;10.558;2024-02-26T04:42:08;5.10;99.90
3190;DHT22;1606;51.946;10.558;2024-02-26T04:44:35;5.10;99.90
3190;DHT22;1606;51.946;10.558;2024-02-26T04:47:03;5.20;99.90
3190;DHT22;1606;51.946;10.558;2024-02-26T04:49:31;5.10;99.90
3190;DHT22;1606;51.946;10.558;2024-02-26T04:51:59;5.20;99.90
3190;DHT22;1606;51.946;10.558;2024-02-26T04:54:27;5.10;99.90
3190;DHT22;1606;51.946;10.558;2024-02-26T04:56:56;5.10;99.90
3190;DHT22;1606;51.946;10.558;2024-02-26T04:59:24;5.10;99.90
3190;DHT22;1606;51.946;10.558;2024-02-26T05:01:51;5.10;99.90
3190;DHT22;1606;51.946;10.558;2024-02-26T05:04:19;5.10;99.90
3190;DHT22;1606;51.946;10.558;2024-02-26T05:06:47;5.10;99.90
3190;DHT22;1606;51.946;10.558;2024-02-26T05:09:15;5.10;99.90
3190;DHT22;1606;51.946;10.558;2024-02-26T05:11:43;5.10;99.90
3190;DHT22;1606;51.946;10.558;2024-02-26T05:14:13;5.10;99.90
3190;DHT22;1606;51.946;10.558;2024-02-26T05:16:40;5.10;99.90
3190;DHT22;1606;51.946;10.558;2024-02-26T05:19:08;5.10;99.90
3190;DHT22;1606;51.946;10.558;2024-02-26T05:21:36;5.20;99.90
3190;DHT22;1606;51.946;10.558;2024-02-26T05:24:04;5.20;99.90
3190;DHT22;1606;51.946;10.558;2024-02-26T05:26:32;5.30;99.90
3190;DHT22;1606;51.946;10.558;2024-02-26T05:29:00;5.30;99.90
3190;DHT22;1606;51.946;10.558;2024-02-26T05:31:29;5.20;99.90
3190;DHT22;1606;51.946;10.558;2024-02-26T05:33:57;5.30;99.90
3190;DHT22;1606;51.946;10.558;2024-02-26T05:36:25;5.40;99.90
3190;DHT22;1606;51.946;10.558;2024-02-26T05:38:55;5.40;99.90
3190;DHT22;1606;51.946;10.558;2024-02-26T05:41:24;5.40;99.90
3190;DHT22;1606;51.946;10.558;2024-02-26T05:43:53;5.40;99.90
3190;DHT22;1606;51.946;10.558;2024-02-26T05:46:22;5.50;99.90
3190;DHT22;1606;51.946;10.558;2024-02-26T05:48:52;5.50;99.90
3190;DHT22;1606;51.946;10.558;2024-02-26T05:51:20;5.50;99.90
3190;DHT22;1606;51.946;10.558;2024-02-26T05:53:49;5.50;99.90
3190;DHT22;1606;51.946;10.558;2024-02-26T05:56:21;5.60;99.90
3190;DHT22;1606;51.946;10.558;2024-02-26T05:58:49;5.60;99.90
3190;DHT22;1606;51.946;10.558;2024-02-26T06:01:19;5.60;99.90
3190;DHT22;1606;51.946;10.558;2024-02-26T06:03:47;5.60;99.90
3190;DHT22;1606;51.946;10.558;2024-02-26T06:06:16;5.70;99.90
3190;DHT22;1606;51.946;10.558;2024-02-26T06:08:45;5.70;99.90
3190;DHT22;1606;51.946;10.558;2024-02-26T06:11:13;5.60;99.90
3190;DHT22;1606;51.946;10.558;2024-02-26T06:13:41;5.70;99.90
3190;DHT22;1606;51.946;10.558;2024-02-26T06:16:08;5.70;99.90
3190;DHT22;1606;51.946;10.558;2024-02-26T06:18:36;5.70;99.90
3190;DHT22;1606;51.946;10.558;2024-02-26T06:21:04;5.60;99.90
3190;DHT22;1606;51.946;10.558;2024-02-26T06:23:38;5.70;99.90
3190;DHT22;1606;51.946;10.558;2024-02-26T06:26:06;5.70;99.90
3190;DHT22;1606;51.946;10.558;2024-02-26T06:28:34;5.80;99.90
3190;DHT22;1606;51.946;10.558;2024-02-26T06:31:02;5.90;99.90
3190;DHT22;1606;51.946;10.558;2024-02-26T06:33:30;6.00;99.90
3190;DHT22;1606;51.946;10.558;2024-02-26T06:35:58;6.10;99.90
3190;DHT22;1606;51.946;10.558;2024-02-26T06:38:26;6.20;99.90
3190;DHT22;1606;51.946;10.558;2024-02-26T06:40:56;6.30;99.90
3190;DHT22;1606;51.946;10.558;2024-02-26T06:43:24;6.20;99.90
3190;DHT22;1606;51.946;10.558;2024-02-26T06:45:52;6.20;99.90
3190;DHT22;1606;51.946;10.558;2024-02-26T06:48:20;6.30;99.90
3190;DHT22;1606;51.946;10.558;2024-02-26T06:50:48;6.30;99.90
3190;DHT22;1606;51.946;10.558;2024-02-26T06:53:16;6.40;99.90
3190;DHT22;1606;51.946;10.558;2024-02-26T06:55:43;6.40;99.90
3190;DHT22;1606;51.946;10.558;2024-02-26T06:58:13;6.40;99.90
3190;DHT22;1606;51.946;10.558;2024-02-26T07:00:41;6.60;99.90
3190;DHT22;1606;51.946;10.558;2024-02-26T07:03:09;6.50;99.90
3190;DHT22;1606;51.946;10.558;2024-02-26T07:05:37;6.50;99.90
3190;DHT22;1606;51.946;10.558;2024-02-26T07:08:06;6.40;99.90
3190;DHT22;1606;51.946;10.558;2024-02-26T07:10:34;6.40;99.90
3190;DHT22;1606;51.946;10.558;2024-02-26T07:13:02;6.40;99.90
3190;DHT22;1606;51.946;10.558;2024-02-26T07:15:32;6.30;99.90
3190;DHT22;1606;51.946;10.558;2024-02-26T07:18:00;6.40;99.90
3190;DHT22;1606;51.946;10.558;2024-02-26T07:20:30;6.40;99.90
3190;DHT22;1606;51.946;10.558;2024-02-26T07:22:58;6.40;99.90
3190;DHT22;1606;51.946;10.558;2024-02-26T07:25:26;6.50;99.90
3190;DHT22;1606;51.946;10.558;2024-02-26T07:27:54;6.60;99.90
3190;DHT22;1606;51.946;10.558;2024-02-26T07:30:22;6.50;99.90
3190;DHT22;1606;51.946;10.558;2024-02-26T07:32:53;6.40;99.90
3190;DHT22;1606;51.946;10.558;2024-02-26T07:35:21;6.60;99.90
3190;DHT22;1606;51.946;10.558;2024-02-26T07:37:49;6.70;99.90
3190;DHT22;1606;51.946;10.558;2024-02-26T07:40:17;6.80;99.90
3190;DHT22;1606;51.946;10.558;2024-02-26T07:42:45;6.80;99.90
3190;DHT22;1606;51.946;10.558;2024-02-26T07:45:13;6.80;99.90
3190;DHT22;1606;51.946;10.558;2024-02-26T07:47:42;6.80;99.90
3190;DHT22;1606;51.946;10.558;2024-02-26T07:50:12;6.90;99.90
3190;DHT22;1606;51.946;10.558;2024-02-26T07:52:40;6.90;99.90
3190;DHT22;1606;51.946;10.558;2024-02-26T07:55:08;6.90;99.90
3190;DHT22;1606;51.946;10.558;2024-02-26T07:57:37;7.00;99.90
3190;DHT22;1606;51.946;10.558;2024-02-26T08:00:06;7.10;99.90
3190;DHT22;1606;51.946;10.558;2024-02-26T08:02:36;7.20;99.90
3190;DHT22;1606;51.946;10.558;2024-02-26T08:05:04;7.10;99.90
3190;DHT22;1606;51.946;10.558;2024-02-26T08:07:33;6.90;99.90
3190;DHT22;1606;51.946;10.558;2024-02-26T08:10:02;7.00;99.90
3190;DHT22;1606;51.946;10.558;2024-02-26T08:12:30;7.10;99.90
3190;DHT22;1606;51.946;10.558;2024-02-26T08:14:59;7.10;99.90
3190;DHT22;1606;51.946;10.558;2024-02-26T08:17:27;7.20;99.90
3190;DHT22;1606;51.946;10.558;2024-02-26T08:19:55;7.20;99.90
3190;DHT22;1606;51.946;10.558;2024-02-26T08:22:24;7.20;99.90
3190;DHT22;1606;51.946;10.558;2024-02-26T08:24:53;7.20;99.90
3190;DHT22;1606;51.946;10.558;2024-02-26T08:27:21;7.30;99.90
3190;DHT22;1606;51.946;10.558;2024-02-26T08:29:51;7.40;99.90
3190;DHT22;1606;51.946;10.558;2024-02-26T08:32:19;7.50;99.90
3190;DHT22;1606;51.946;10.558;2024-02-26T08:34:47;7.50;99.90
3190;DHT22;1606;51.946;10.558;2024-02-26T08:37:16;7.60;99.90
3190;DHT22;1606;51.946;10.558;2024-02-26T08:39:43;7.60;99.90
3190;DHT22;1606;51.946;10.558;2024-02-26T08:42:14;7.60;99.90
3190;DHT22;1606;51.946;10.558;2024-02-26T08:44:42;7.60;99.90
3190;DHT22;1606;51.946;10.558;2024-02-26T08:47:10;7.50;99.90
3190;DHT22;1606;51.946;10.558;2024-02-26T08:49:42;7.60;99.90
3190;DHT22;1606;51.946;10.558;2024-02-26T08:52:10;7.90;99.90
3190;DHT22;1606;51.946;10.558;2024-02-26T08:54:39;7.90;99.90
3190;DHT22;1606;51.946;10.558;2024-02-26T08:57:07;8.10;99.90
3190;DHT22;1606;51.946;10.558;2024-02-26T08:59:36;8.20;99.90
3190;DHT22;1606;51.946;10.558;2024-02-26T09:02:04;8.20;99.90
3190;DHT22;1606;51.946;10.558;2024-02-26T09:04:32;8.30;99.90
3190;DHT22;1606;51.946;10.558;2024-02-26T09:07:00;8.40;99.90
3190;DHT22;1606;51.946;10.558;2024-02-26T09:09:29;8.40;99.90
3190;DHT22;1606;51.946;10.558;2024-02-26T09:11:56;8.40;99.90
3190;DHT22;1606;51.946;10.558;2024-02-26T09:14:25;8.40;99.90
3190;DHT22;1606;51.946;10.558;2024-02-26T09:16:55;8.50;99.90
3190;DHT22;1606;51.946;10.558;2024-02-26T09:19:24;8.60;99.90
3190;DHT22;1606;51.946;10.558;2024-02-26T09:21:54;8.80;99.90
3190;DHT22;1606;51.946;10.558;2024-02-26T09:24:24;8.80;99.90
3190;DHT22;1606;51.946;10.558;2024-02-26T09:26:52;8.90;99.90
3190;DHT22;1606;51.946;10.558;2024-02-26T09:29:21;8.80;99.90
3190;DHT22;1606;51.946;10.558;2024-02-26T09:31:49;8.80;99.90
3190;DHT22;1606;51.946;10.558;2024-02-26T09:34:18;8.80;99.90
3190;DHT22;1606;51.946;10.558;2024-02-26T09:36:46;8.80;99.90
3190;DHT22;1606;51.946;10.558;2024-02-26T09:39:15;8.90;99.90
3190;DHT22;1606;51.946;10.558;2024-02-26T09:41:48;8.90;99.90
3190;DHT22;1606;51.946;10.558;2024-02-26T09:44:19;8.90;99.90
3190;DHT22;1606;51.946;10.558;2024-02-26T09:46:48;8.80;99.90
3190;DHT22;1606;51.946;10.558;2024-02-26T09:49:17;8.70;99.90
3190;DHT22;1606;51.946;10.558;2024-02-26T09:51:47;8.70;99.90
3190;DHT22;1606;51.946;10.558;2024-02-26T09:54:17;8.70;99.90
3190;DHT22;1606;51.946;10.558;2024-02-26T09:56:47;9.00;99.90
3190;DHT22;1606;51.946;10.558;2024-02-26T09:59:29;8.90;99.90
3190;DHT22;1606;51.946;10.558;2024-02-26T10:02:03;8.70;99.90
3190;DHT22;1606;51.946;10.558;2024-02-26T10:04:33;8.80;99.90
3190;DHT22;1606;51.946;10.558;2024-02-26T10:07:01;8.90;99.90
3190;DHT22;1606;51.946;10.558;2024-02-26T10:09:31;9.00;99.90
3190;DHT22;1606;51.946;10.558;2024-02-26T10:11:59;9.00;99.90
3190;DHT22;1606;51.946;10.558;2024-02-26T10:14:27;9.10;99.90
3190;DHT22;1606;51.946;10.558;2024-02-26T10:16:55;9.10;99.90
3190;DHT22;1606;51.946;10.558;2024-02-26T10:19:27;9.20;99.90
3190;DHT22;1606;51.946;10.558;2024-02-26T10:22:00;9.20;99.90
3190;DHT22;1606;51.946;10.558;2024-02-26T10:24:29;9.20;99.90
3190;DHT22;1606;51.946;10.558;2024-02-26T10:26:57;9.10;99.90
3190;DHT22;1606;51.946;10.558;2024-02-26T10:29:25;9.20;99.90
3190;DHT22;1606;51.946;10.558;2024-02-26T10:31:54;9.40;99.90
3190;DHT22;1606;51.946;10.558;2024-02-26T10:34:21;9.30;99.90
3190;DHT22;1606;51.946;10.558;2024-02-26T10:36:50;9.40;99.90
3190;DHT22;1606;51.946;10.558;2024-02-26T10:39:22;9.40;99.90
3190;DHT22;1606;51.946;10.558;2024-02-26T10:41:50;9.40;99.90
3190;DHT22;1606;51.946;10.558;2024-02-26T10:44:18;9.50;99.90
3190;DHT22;1606;51.946;10.558;2024-02-26T10:46:47;9.50;99.90
3190;DHT22;1606;51.946;10.558;2024-02-26T10:49:16;9.50;99.90
3190;DHT22;1606;51.946;10.558;2024-02-26T10:51:55;9.60;99.90
3190;DHT22;1606;51.946;10.558;2024-02-26T10:54:26;9.60;99.90
3190;DHT22;1606;51.946;10.558;2024-02-26T10:56:56;9.60;99.90
3190;DHT22;1606;51.946;10.558;2024-02-26T10:59:26;9.70;99.90
3190;DHT22;1606;51.946;10.558;2024-02-26T11:01:54;9.90;99.90
3190;DHT22;1606;51.946;10.558;2024-02-26T11:04:23;10.00;99.90
3190;DHT22;1606;51.946;10.558;2024-02-26T11:06:52;9.90;99.90
3190;DHT22;1606;51.946;10.558;2024-02-26T11:09:24;10.10;99.90
3190;DHT22;1606;51.946;10.558;2024-02-26T11:11:52;10.20;99.90
3190;DHT22;1606;51.946;10.558;2024-02-26T11:14:22;10.20;99.90
3190;DHT22;1606;51.946;10.558;2024-02-26T11:16:53;10.20;99.90
3190;DHT22;1606;51.946;10.558;2024-02-26T11:19:22;10.20;99.90
3190;DHT22;1606;51.946;10.558;2024-02-26T11:21:52;10.30;99.90
3190;DHT22;1606;51.946;10.558;2024-02-26T11:24:20;10.30;99.90
3190;DHT22;1606;51.946;10.558;2024-02-26T11:26:51;10.00;99.90
3190;DHT22;1606;51.946;10.558;2024-02-26T11:29:27;10.00;99.90
3190;DHT22;1606;51.946;10.558;2024-02-26T11:31:56;9.90;99.90
3190;DHT22;1606;51.946;10.558;2024-02-26T11:34:26;10.10;99.90
3190;DHT22;1606;51.946;10.558;2024-02-26T11:36:55;10.30;99.90
3190;DHT22;1606;51.946;10.558;2024-02-26T11:39:24;10.20;99.90
3190;DHT22;1606;51.946;10.558;2024-02-26T11:41:55;10.20;99.90
3190;DHT22;1606;51.946;10.558;2024-02-26T11:44:29;10.00;99.90
3190;DHT22;1606;51.946;10.558;2024-02-26T11:46:57;10.00;99.90
3190;DHT22;1606;51.946;10.558;2024-02-26T11:49:31;10.00;99.90
3190;DHT22;1606;51.946;10.558;2024-02-26T11:52:00;10.00;99.90
3190;DHT22;1606;51.946;10.558;2024-02-26T11:54:40;10.10;99.90
3190;DHT22;1606;51.946;10.558;2024-02-26T11:57:22;10.30;99.90
3190;DHT22;1606;51.946;10.558;2024-02-26T11:59:50;10.30;99.90
3190;DHT22;1606;51.946;10.558;2024-02-26T12:02:41;10.50;99.90
3190;DHT22;1606;51.946;10.558;2024-02-26T12:05:11;10.50;99.90
3190;DHT22;1606;51.946;10.558;2024-02-26T12:07:41;10.60;99.90
3190;DHT22;1606;51.946;10.558;2024-02-26T12:10:31;10.80;99.90
3190;DHT22;1606;51.946;10.558;2024-02-26T12:13:05;10.70;99.90
3190;DHT22;1606;51.946;10.558;2024-02-26T12:15:36;10.60;99.90
3190;DHT22;1606;51.946;10.558;2024-02-26T12:18:06;10.70;99.90
3190;DHT22;1606;51.946;10.558;2024-02-26T12:20:37;11.10;99.90
3190;DHT22;1606;51.946;10.558;2024-02-26T12:23:05;11.10;99.90
3190;DHT22;1606;51.946;10.558;2024-02-26T12:25:33;11.00;99.90
3190;DHT22;1606;51.946;10.558;2024-02-26T12:28:01;11.20;99.90
3190;DHT22;1606;51.946;10.558;2024-02-26T12:30:31;11.40;99.90
3190;DHT22;1606;51.946;10.558;2024-02-26T12:32:59;11.70;99.90
3190;DHT22;1606;51.946;10.558;2024-02-26T12:35:28;12.00;99.90
3190;DHT22;1606;51.946;10.558;2024-02-26T12:37:58;12.10;99.90
3190;DHT22;1606;51.946;10.558;2024-02-26T12:40:26;12.00;99.90
3190;DHT22;1606;51.946;10.558;2024-02-26T12:42:54;12.10;99.90
3190;DHT22;1606;51.946;10.558;2024-02-26T12:45:22;12.30;99.90
3190;DHT22;1606;51.946;10.558;2024-02-26T12:47:53;12.40;99.90
3190;DHT22;1606;51.946;10.558;2024-02-26T12:50:21;12.30;99.90
3190;DHT22;1606;51.946;10.558;2024-02-26T12:52:51;12.10;99.90
3190;DHT22;1606;51.946;10.558;2024-02-26T12:55:20;12.00;99.90
3190;DHT22;1606;51.946;10.558;2024-02-26T12:57:49;12.20;99.90
3190;DHT22;1606;51.946;10.558;2024-02-26T13:00:21;12.30;99.90
3190;DHT22;1606;51.946;10.558;2024-02-26T13:02:53;12.30;99.90
3190;DHT22;1606;51.946;10.558;2024-02-26T13:05:23;12.40;99.90
3190;DHT22;1606;51.946;10.558;2024-02-26T13:07:51;12.40;99.90
3190;DHT22;1606;51.946;10.558;2024-02-26T13:10:20;12.50;99.90
3190;DHT22;1606;51.946;10.558;2024-02-26T13:12:49;12.20;99.90
3190;DHT22;1606;51.946;10.558;2024-02-26T13:15:18;12.30;99.90
3190;DHT22;1606;51.946;10.558;2024-02-26T13:17:48;12.20;99.90
3190;DHT22;1606;51.946;10.558;2024-02-26T13:20:26;12.30;99.90
3190;DHT22;1606;51.946;10.558;2024-02-26T13:23:00;12.50;99.90
3190;DHT22;1606;51.946;10.558;2024-02-26T13:25:28;12.70;99.90
3190;DHT22;1606;51.946;10.558;2024-02-26T13:28:09;12.70;99.90
3190;DHT22;1606;51.946;10.558;2024-02-26T13:30:40;12.80;99.90
3190;DHT22;1606;51.946;10.558;2024-02-26T13:33:09;12.80;99.90
3190;DHT22;1606;51.946;10.558;2024-02-26T13:35:39;12.80;99.90
3190;DHT22;1606;51.946;10.558;2024-02-26T13:38:08;12.70;99.90
3190;DHT22;1606;51.946;10.558;2024-02-26T13:40:37;12.70;99.90
3190;DHT22;1606;51.946;10.558;2024-02-26T13:43:05;12.60;99.90
3190;DHT22;1606;51.946;10.558;2024-02-26T13:45:34;12.60;99.90
3190;DHT22;1606;51.946;10.558;2024-02-26T13:48:03;12.50;99.90
3190;DHT22;1606;51.946;10.558;2024-02-26T13:50:31;12.50;99.90
3190;DHT22;1606;51.946;10.558;2024-02-26T13:53:01;12.70;99.90
3190;DHT22;1606;51.946;10.558;2024-02-26T13:55:28;12.60;99.90
3190;DHT22;1606;51.946;10.558;2024-02-26T13:57:59;12.70;99.90
3190;DHT22;1606;51.946;10.558;2024-02-26T14:00:27;12.80;99.90
3190;DHT22;1606;51.946;10.558;2024-02-26T14:02:55;12.90;99.90
3190;DHT22;1606;51.946;10.558;2024-02-26T14:05:23;12.70;99.90
3190;DHT22;1606;51.946;10.558;2024-02-26T14:07:52;12.50;99.90
3190;DHT22;1606;51.946;10.558;2024-02-26T14:10:21;12.40;99.90
3190;DHT22;1606;51.946;10.558;2024-02-26T14:12:49;12.50;99.90
3190;DHT22;1606;51.946;10.558;2024-02-26T14:15:17;12.40;99.90
3190;DHT22;1606;51.946;10.558;2024-02-26T14:17:45;12.20;99.90
3190;DHT22;1606;51.946;10.558;2024-02-26T14:20:20;12.10;99.90
3190;DHT22;1606;51.946;10.558;2024-02-26T14:22:48;12.00;99.90
3190;DHT22;1606;51.946;10.558;2024-02-26T14:25:16;11.80;99.90
3190;DHT22;1606;51.946;10.558;2024-02-26T14:27:46;11.80;99.90
3190;DHT22;1606;51.946;10.558;2024-02-26T14:30:14;11.80;99.90
3190;DHT22;1606;51.946;10.558;2024-02-26T14:32:42;11.80;99.90
3190;DHT22;1606;51.946;10.558;2024-02-26T14:35:11;11.80;99.90
3190;DHT22;1606;51.946;10.558;2024-02-26T14:37:43;11.80;99.90
3190;DHT22;1606;51.946;10.558;2024-02-26T14:40:14;12.00;99.90
3190;DHT22;1606;51.946;10.558;2024-02-26T14:42:42;12.00;99.90
3190;DHT22;1606;51.946;10.558;2024-02-26T14:45:12;12.20;99.90
3190;DHT22;1606;51.946;10.558;2024-02-26T14:47:40;12.20;99.90
3190;DHT22;1606;51.946;10.558;2024-02-26T14:50:09;12.10;99.90
3190;DHT22;1606;51.946;10.558;2024-02-26T14:52:37;11.90;99.90
3190;DHT22;1606;51.946;10.558;2024-02-26T14:55:06;11.80;99.90
3190;DHT22;1606;51.946;10.558;2024-02-26T14:57:34;11.90;99.90
3190;DHT22;1606;51.946;10.558;2024-02-26T15:00:02;11.90;99.90
3190;DHT22;1606;51.946;10.558;2024-02-26T15:02:33;12.00;99.90
3190;DHT22;1606;51.946;10.558;2024-02-26T15:05:01;12.00;99.90
3190;DHT22;1606;51.946;10.558;2024-02-26T15:07:31;11.90;99.90
3190;DHT22;1606;51.946;10.558;2024-02-26T15:09:59;12.00;99.90
3190;DHT22;1606;51.946;10.558;2024-02-26T15:12:27;12.10;99.90
3190;DHT22;1606;51.946;10.558;2024-02-26T15:14:55;12.00;99.90
3190;DHT22;1606;51.946;10.558;2024-02-26T15:17:23;12.10;99.90
3190;DHT22;1606;51.946;10.558;2024-02-26T15:19:53;12.10;99.90
3190;DHT22;1606;51.946;10.558;2024-02-26T15:22:23;12.10;99.90
3190;DHT22;1606;51.946;10.558;2024-02-26T15:24:51;12.00;99.90
3190;DHT22;1606;51.946;10.558;2024-02-26T15:27:19;12.10;99.90
3190;DHT22;1606;51.946;10.558;2024-02-26T15:29:47;12.10;99.90
3190;DHT22;1606;51.946;10.558;2024-02-26T15:32:15;12.00;99.90
3190;DHT22;1606;51.946;10.558;2024-02-26T15:34:43;12.10;99.90
3190;DHT22;1606;51.946;10.558;2024-02-26T15:37:13;12.30;99.90
3190;DHT22;1606;51.946;10.558;2024-02-26T15:39:41;12.40;99.90
3190;DHT22;1606;51.946;10.558;2024-02-26T15:42:08;12.50;99.90
3190;DHT22;1606;51.946;10.558;2024-02-26T15:44:37;12.50;99.90
3190;DHT22;1606;51.946;10.558;2024-02-26T15:47:05;12.40;99.90
3190;DHT22;1606;51.946;10.558;2024-02-26T15:49:33;12.20;99.90
3190;DHT22;1606;51.946;10.558;2024-02-26T15:52:01;12.10;99.90
3190;DHT22;1606;51.946;10.558;2024-02-26T15:54:32;11.80;99.90
3190;DHT22;1606;51.946;10.558;2024-02-26T15:57:00;11.80;99.90
3190;DHT22;1606;51.946;10.558;2024-02-26T15:59:31;11.70;99.90
3190;DHT22;1606;51.946;10.558;2024-02-26T16:02:04;11.70;99.90
3190;DHT22;1606;51.946;10.558;2024-02-26T16:04:32;11.80;99.90
3190;DHT22;1606;51.946;10.558;2024-02-26T16:07:03;11.90;99.90